Bayview, Wisconsin
Current Conditions -  °F | °C
As of 2:52 PM on Tuesday 21 Oct 2014 (Local Time) from KMKE Reporting Station
Overcast Overcast  
Wind Chill:   Ceiling: 2800
Heat Index:   Visibility: 10mi
Dew Point:   Wind: 12mph
Humidity: 66%   Direction: 360°N
Pressure: 30.21"   Gusts: 20mph
Location:  42.9708°N, 87.8754°W
Report Text: KMKE 211952Z 36010G17KT 10SM FEW023 OVC028 09/03 A3021 RMK AO2 SLP235 T00890028
Loading
Personal Weather Stations






























Interactive Weather Map
Tropical Storm Tracking
New forecast layout! Learn more

10-Day Weather Forecast

Advertisements
Track Severe Weather on mobile